sensor_id;sensor_type;location;lat;lon;timestamp;P1;durP1;ratioP1;P2;durP2;ratioP2
61015;SDS011;46902;52.920;6.536;2024-01-15T00:01:50;14.98;;;2.40;;
61015;SDS011;46902;52.920;6.536;2024-01-15T00:04:15;19.38;;;2.85;;
61015;SDS011;46902;52.920;6.536;2024-01-15T00:06:41;16.23;;;2.97;;
61015;SDS011;46902;52.920;6.536;2024-01-15T00:09:06;11.55;;;2.08;;
61015;SDS011;46902;52.920;6.536;2024-01-15T00:11:32;15.77;;;2.47;;
61015;SDS011;46902;52.920;6.536;2024-01-15T00:13:58;16.73;;;2.10;;
61015;SDS011;46902;52.920;6.536;2024-01-15T00:16:24;16.42;;;2.28;;
61015;SDS011;46902;52.920;6.536;2024-01-15T00:18:49;15.70;;;2.45;;
61015;SDS011;46902;52.920;6.536;2024-01-15T00:21:15;15.98;;;2.45;;
61015;SDS011;46902;52.920;6.536;2024-01-15T00:23:43;13.45;;;2.08;;
61015;SDS011;46902;52.920;6.536;2024-01-15T00:26:09;15.10;;;2.00;;
61015;SDS011;46902;52.920;6.536;2024-01-15T00:28:36;13.20;;;2.03;;
61015;SDS011;46902;52.920;6.536;2024-01-15T00:31:02;9.82;;;1.50;;
61015;SDS011;46902;52.920;6.536;2024-01-15T00:33:28;16.58;;;2.10;;
61015;SDS011;46902;52.920;6.536;2024-01-15T00:35:54;15.20;;;2.22;;
61015;SDS011;46902;52.920;6.536;2024-01-15T00:38:20;17.48;;;2.50;;
61015;SDS011;46902;52.920;6.536;2024-01-15T00:40:45;14.43;;;1.70;;
61015;SDS011;46902;52.920;6.536;2024-01-15T00:43:11;16.60;;;2.15;;
61015;SDS011;46902;52.920;6.536;2024-01-15T00:45:36;17.80;;;2.40;;
61015;SDS011;46902;52.920;6.536;2024-01-15T00:48:02;12.63;;;2.00;;
61015;SDS011;46902;52.920;6.536;2024-01-15T00:50:28;15.73;;;1.88;;
61015;SDS011;46902;52.920;6.536;2024-01-15T00:52:54;13.40;;;1.58;;
61015;SDS011;46902;52.920;6.536;2024-01-15T00:55:20;16.38;;;2.28;;
61015;SDS011;46902;52.920;6.536;2024-01-15T00:57:45;20.38;;;2.38;;
61015;SDS011;46902;52.920;6.536;2024-01-15T01:00:11;15.13;;;2.45;;
61015;SDS011;46902;52.920;6.536;2024-01-15T01:02:37;11.82;;;2.38;;
61015;SDS011;46902;52.920;6.536;2024-01-15T01:05:03;18.00;;;2.10;;
61015;SDS011;46902;52.920;6.536;2024-01-15T01:07:28;14.73;;;2.05;;
61015;SDS011;46902;52.920;6.536;2024-01-15T01:09:54;16.80;;;2.20;;
61015;SDS011;46902;52.920;6.536;2024-01-15T01:12:20;15.88;;;2.35;;
61015;SDS011;46902;52.920;6.536;2024-01-15T01:14:46;14.43;;;2.50;;
61015;SDS011;46902;52.920;6.536;2024-01-15T01:17:11;17.30;;;2.40;;
61015;SDS011;46902;52.920;6.536;2024-01-15T01:19:37;15.00;;;2.95;;
61015;SDS011;46902;52.920;6.536;2024-01-15T01:22:03;15.43;;;2.17;;
61015;SDS011;46902;52.920;6.536;2024-01-15T01:24:28;15.73;;;2.30;;
61015;SDS011;46902;52.920;6.536;2024-01-15T01:26:54;13.43;;;1.85;;
61015;SDS011;46902;52.920;6.536;2024-01-15T01:29:20;18.02;;;2.20;;
61015;SDS011;46902;52.920;6.536;2024-01-15T01:31:46;15.73;;;2.40;;
61015;SDS011;46902;52.920;6.536;2024-01-15T01:34:15;13.77;;;1.92;;
61015;SDS011;46902;52.920;6.536;2024-01-15T01:36:41;9.50;;;1.42;;
61015;SDS011;46902;52.920;6.536;2024-01-15T01:39:07;11.88;;;1.83;;
61015;SDS011;46902;52.920;6.536;2024-01-15T01:41:33;9.50;;;1.38;;
61015;SDS011;46902;52.920;6.536;2024-01-15T01:43:58;3.67;;;0.70;;
61015;SDS011;46902;52.920;6.536;2024-01-15T01:46:24;5.63;;;0.88;;
61015;SDS011;46902;52.920;6.536;2024-01-15T01:48:52;4.20;;;0.68;;
61015;SDS011;46902;52.920;6.536;2024-01-15T01:51:19;2.53;;;0.65;;
61015;SDS011;46902;52.920;6.536;2024-01-15T01:53:47;4.47;;;0.57;;
61015;SDS011;46902;52.920;6.536;2024-01-15T01:56:14;4.63;;;0.60;;
61015;SDS011;46902;52.920;6.536;2024-01-15T01:58:40;5.82;;;0.98;;
61015;SDS011;46902;52.920;6.536;2024-01-15T02:01:05;3.10;;;0.50;;
61015;SDS011;46902;52.920;6.536;2024-01-15T02:03:32;4.57;;;0.70;;
61015;SDS011;46902;52.920;6.536;2024-01-15T02:05:58;4.18;;;0.80;;
61015;SDS011;46902;52.920;6.536;2024-01-15T02:08:25;4.10;;;0.63;;
61015;SDS011;46902;52.920;6.536;2024-01-15T02:10:51;5.60;;;1.00;;
61015;SDS011;46902;52.920;6.536;2024-01-15T02:13:17;4.97;;;0.65;;
61015;SDS011;46902;52.920;6.536;2024-01-15T02:15:43;6.03;;;1.13;;
61015;SDS011;46902;52.920;6.536;2024-01-15T02:18:09;9.15;;;1.20;;
61015;SDS011;46902;52.920;6.536;2024-01-15T02:20:35;7.25;;;1.30;;
61015;SDS011;46902;52.920;6.536;2024-01-15T02:25:40;10.10;;;2.33;;
61015;SDS011;46902;52.920;6.536;2024-01-15T02:28:10;10.85;;;1.73;;
61015;SDS011;46902;52.920;6.536;2024-01-15T02:30:40;13.43;;;1.55;;
61015;SDS011;46902;52.920;6.536;2024-01-15T02:33:07;8.95;;;1.30;;
61015;SDS011;46902;52.920;6.536;2024-01-15T02:35:33;9.90;;;1.60;;
61015;SDS011;46902;52.920;6.536;2024-01-15T02:38:03;15.23;;;2.45;;
61015;SDS011;46902;52.920;6.536;2024-01-15T02:40:29;14.77;;;2.15;;
61015;SDS011;46902;52.920;6.536;2024-01-15T02:42:55;15.48;;;2.13;;
61015;SDS011;46902;52.920;6.536;2024-01-15T02:45:21;12.57;;;1.80;;
61015;SDS011;46902;52.920;6.536;2024-01-15T02:47:47;9.98;;;1.30;;
61015;SDS011;46902;52.920;6.536;2024-01-15T02:50:13;16.30;;;1.92;;
61015;SDS011;46902;52.920;6.536;2024-01-15T02:52:39;12.30;;;2.08;;
61015;SDS011;46902;52.920;6.536;2024-01-15T02:55:05;13.57;;;1.98;;
61015;SDS011;46902;52.920;6.536;2024-01-15T02:57:31;10.27;;;1.67;;
61015;SDS011;46902;52.920;6.536;2024-01-15T02:59:56;10.73;;;1.48;;
61015;SDS011;46902;52.920;6.536;2024-01-15T03:02:22;14.60;;;1.60;;
61015;SDS011;46902;52.920;6.536;2024-01-15T03:04:48;11.63;;;1.63;;
61015;SDS011;46902;52.920;6.536;2024-01-15T03:07:13;10.73;;;2.05;;
61015;SDS011;46902;52.920;6.536;2024-01-15T03:09:39;10.50;;;1.95;;
61015;SDS011;46902;52.920;6.536;2024-01-15T03:12:04;12.73;;;1.45;;
61015;SDS011;46902;52.920;6.536;2024-01-15T03:14:30;14.70;;;2.00;;
61015;SDS011;46902;52.920;6.536;2024-01-15T03:16:56;13.65;;;2.15;;
61015;SDS011;46902;52.920;6.536;2024-01-15T03:19:22;18.25;;;2.10;;
61015;SDS011;46902;52.920;6.536;2024-01-15T03:21:47;12.07;;;2.00;;
61015;SDS011;46902;52.920;6.536;2024-01-15T03:24:13;16.92;;;2.38;;
61015;SDS011;46902;52.920;6.536;2024-01-15T03:26:39;14.20;;;1.90;;
61015;SDS011;46902;52.920;6.536;2024-01-15T03:29:04;11.75;;;1.80;;
61015;SDS011;46902;52.920;6.536;2024-01-15T03:31:30;17.40;;;2.38;;
61015;SDS011;46902;52.920;6.536;2024-01-15T03:33:56;11.63;;;1.77;;
61015;SDS011;46902;52.920;6.536;2024-01-15T03:36:21;19.25;;;2.85;;
61015;SDS011;46902;52.920;6.536;2024-01-15T03:38:47;18.08;;;2.10;;
61015;SDS011;46902;52.920;6.536;2024-01-15T03:41:13;10.85;;;1.55;;
61015;SDS011;46902;52.920;6.536;2024-01-15T03:43:38;12.70;;;1.60;;
61015;SDS011;46902;52.920;6.536;2024-01-15T03:46:05;10.00;;;1.60;;
61015;SDS011;46902;52.920;6.536;2024-01-15T03:48:30;13.15;;;2.35;;
61015;SDS011;46902;52.920;6.536;2024-01-15T03:50:56;9.38;;;1.83;;
61015;SDS011;46902;52.920;6.536;2024-01-15T03:53:22;12.77;;;1.80;;
61015;SDS011;46902;52.920;6.536;2024-01-15T03:55:47;10.63;;;1.77;;
61015;SDS011;46902;52.920;6.536;2024-01-15T03:58:13;9.00;;;1.90;;
61015;SDS011;46902;52.920;6.536;2024-01-15T04:00:40;13.13;;;1.60;;
61015;SDS011;46902;52.920;6.536;2024-01-15T04:03:05;8.77;;;1.40;;
61015;SDS011;46902;52.920;6.536;2024-01-15T04:05:31;8.35;;;2.03;;
61015;SDS011;46902;52.920;6.536;2024-01-15T04:07:56;8.50;;;1.25;;
61015;SDS011;46902;52.920;6.536;2024-01-15T04:10:22;11.13;;;1.90;;
61015;SDS011;46902;52.920;6.536;2024-01-15T04:12:48;10.48;;;1.75;;
61015;SDS011;46902;52.920;6.536;2024-01-15T04:15:13;11.52;;;1.60;;
61015;SDS011;46902;52.920;6.536;2024-01-15T04:17:39;13.13;;;1.83;;
61015;SDS011;46902;52.920;6.536;2024-01-15T04:20:04;12.25;;;1.25;;
61015;SDS011;46902;52.920;6.536;2024-01-15T04:22:31;10.95;;;1.52;;
61015;SDS011;46902;52.920;6.536;2024-01-15T04:24:58;9.75;;;1.52;;
61015;SDS011;46902;52.920;6.536;2024-01-15T04:27:24;14.10;;;1.98;;
61015;SDS011;46902;52.920;6.536;2024-01-15T04:29:49;11.60;;;1.40;;
61015;SDS011;46902;52.920;6.536;2024-01-15T04:32:15;14.55;;;2.42;;
61015;SDS011;46902;52.920;6.536;2024-01-15T04:34:40;11.98;;;1.80;;
61015;SDS011;46902;52.920;6.536;2024-01-15T04:37:06;15.60;;;2.30;;
61015;SDS011;46902;52.920;6.536;2024-01-15T04:39:32;14.95;;;2.03;;
61015;SDS011;46902;52.920;6.536;2024-01-15T04:41:57;15.00;;;2.22;;
61015;SDS011;46902;52.920;6.536;2024-01-15T04:44:23;13.82;;;2.00;;
61015;SDS011;46902;52.920;6.536;2024-01-15T04:46:48;15.40;;;2.08;;
61015;SDS011;46902;52.920;6.536;2024-01-15T04:49:14;13.50;;;2.28;;
61015;SDS011;46902;52.920;6.536;2024-01-15T04:51:40;18.05;;;2.40;;
61015;SDS011;46902;52.920;6.536;2024-01-15T04:54:05;14.15;;;1.95;;
61015;SDS011;46902;52.920;6.536;2024-01-15T04:56:31;13.38;;;1.80;;
61015;SDS011;46902;52.920;6.536;2024-01-15T04:58:56;10.52;;;1.80;;
61015;SDS011;46902;52.920;6.536;2024-01-15T05:01:22;15.10;;;2.72;;
61015;SDS011;46902;52.920;6.536;2024-01-15T05:03:47;13.25;;;1.95;;
61015;SDS011;46902;52.920;6.536;2024-01-15T05:06:14;11.93;;;1.75;;
61015;SDS011;46902;52.920;6.536;2024-01-15T05:08:40;12.23;;;1.65;;
61015;SDS011;46902;52.920;6.536;2024-01-15T05:11:05;15.35;;;2.15;;
61015;SDS011;46902;52.920;6.536;2024-01-15T05:13:31;9.88;;;1.65;;
61015;SDS011;46902;52.920;6.536;2024-01-15T05:15:56;11.65;;;1.80;;
61015;SDS011;46902;52.920;6.536;2024-01-15T05:18:22;14.50;;;1.88;;
61015;SDS011;46902;52.920;6.536;2024-01-15T05:20:48;9.75;;;1.65;;
61015;SDS011;46902;52.920;6.536;2024-01-15T05:23:13;11.73;;;1.70;;
61015;SDS011;46902;52.920;6.536;2024-01-15T05:25:39;13.45;;;2.13;;
61015;SDS011;46902;52.920;6.536;2024-01-15T05:28:05;10.43;;;2.08;;
61015;SDS011;46902;52.920;6.536;2024-01-15T05:30:30;10.93;;;1.38;;
61015;SDS011;46902;52.920;6.536;2024-01-15T05:32:56;8.48;;;1.50;;
61015;SDS011;46902;52.920;6.536;2024-01-15T05:35:22;16.17;;;1.67;;
61015;SDS011;46902;52.920;6.536;2024-01-15T05:37:48;13.32;;;2.15;;
61015;SDS011;46902;52.920;6.536;2024-01-15T05:40:14;12.18;;;1.90;;
61015;SDS011;46902;52.920;6.536;2024-01-15T05:42:39;16.15;;;2.10;;
61015;SDS011;46902;52.920;6.536;2024-01-15T05:45:06;13.43;;;1.88;;
61015;SDS011;46902;52.920;6.536;2024-01-15T05:47:32;12.82;;;1.52;;
61015;SDS011;46902;52.920;6.536;2024-01-15T05:49:58;10.60;;;1.50;;
61015;SDS011;46902;52.920;6.536;2024-01-15T05:52:26;12.80;;;1.65;;
61015;SDS011;46902;52.920;6.536;2024-01-15T05:54:51;17.48;;;2.20;;
61015;SDS011;46902;52.920;6.536;2024-01-15T05:57:17;13.88;;;1.80;;
61015;SDS011;46902;52.920;6.536;2024-01-15T05:59:44;10.32;;;1.67;;
61015;SDS011;46902;52.920;6.536;2024-01-15T06:02:10;12.60;;;1.90;;
61015;SDS011;46902;52.920;6.536;2024-01-15T06:04:36;20.15;;;2.13;;
61015;SDS011;46902;52.920;6.536;2024-01-15T06:07:02;12.15;;;1.80;;
61015;SDS011;46902;52.920;6.536;2024-01-15T06:09:27;10.95;;;1.65;;
61015;SDS011;46902;52.920;6.536;2024-01-15T06:11:53;13.80;;;1.90;;
61015;SDS011;46902;52.920;6.536;2024-01-15T06:14:20;16.08;;;2.38;;
61015;SDS011;46902;52.920;6.536;2024-01-15T06:16:45;8.80;;;1.80;;
61015;SDS011;46902;52.920;6.536;2024-01-15T06:19:11;15.48;;;2.10;;
61015;SDS011;46902;52.920;6.536;2024-01-15T06:21:36;17.83;;;2.08;;
61015;SDS011;46902;52.920;6.536;2024-01-15T06:24:02;12.32;;;1.70;;
61015;SDS011;46902;52.920;6.536;2024-01-15T06:26:28;15.95;;;2.50;;
61015;SDS011;46902;52.920;6.536;2024-01-15T06:28:53;10.82;;;1.50;;
61015;SDS011;46902;52.920;6.536;2024-01-15T06:31:19;13.82;;;2.05;;
61015;SDS011;46902;52.920;6.536;2024-01-15T06:33:45;15.05;;;1.80;;
61015;SDS011;46902;52.920;6.536;2024-01-15T06:36:13;15.60;;;2.10;;
61015;SDS011;46902;52.920;6.536;2024-01-15T06:38:39;14.13;;;1.90;;
61015;SDS011;46902;52.920;6.536;2024-01-15T06:41:05;13.85;;;1.73;;
61015;SDS011;46902;52.920;6.536;2024-01-15T06:43:30;14.85;;;2.33;;
61015;SDS011;46902;52.920;6.536;2024-01-15T06:45:56;17.33;;;2.10;;
61015;SDS011;46902;52.920;6.536;2024-01-15T06:48:21;12.50;;;1.88;;
61015;SDS011;46902;52.920;6.536;2024-01-15T06:50:47;13.60;;;2.35;;
61015;SDS011;46902;52.920;6.536;2024-01-15T06:53:13;16.23;;;1.80;;
61015;SDS011;46902;52.920;6.536;2024-01-15T06:55:38;17.40;;;2.47;;
61015;SDS011;46902;52.920;6.536;2024-01-15T06:58:04;14.85;;;2.08;;
61015;SDS011;46902;52.920;6.536;2024-01-15T07:00:30;15.43;;;2.50;;
61015;SDS011;46902;52.920;6.536;2024-01-15T07:02:55;14.02;;;2.40;;
61015;SDS011;46902;52.920;6.536;2024-01-15T07:05:21;18.20;;;2.50;;
61015;SDS011;46902;52.920;6.536;2024-01-15T07:07:48;14.45;;;3.20;;
61015;SDS011;46902;52.920;6.536;2024-01-15T07:10:14;14.48;;;2.00;;
61015;SDS011;46902;52.920;6.536;2024-01-15T07:12:41;11.80;;;2.00;;
61015;SDS011;46902;52.920;6.536;2024-01-15T07:15:08;15.88;;;2.45;;
61015;SDS011;46902;52.920;6.536;2024-01-15T07:17:34;17.77;;;2.63;;
61015;SDS011;46902;52.920;6.536;2024-01-15T07:19:59;17.80;;;2.53;;
61015;SDS011;46902;52.920;6.536;2024-01-15T07:22:25;16.77;;;2.42;;
61015;SDS011;46902;52.920;6.536;2024-01-15T07:24:51;15.30;;;2.75;;
61015;SDS011;46902;52.920;6.536;2024-01-15T07:27:16;19.08;;;3.13;;
61015;SDS011;46902;52.920;6.536;2024-01-15T07:29:42;13.88;;;1.95;;
61015;SDS011;46902;52.920;6.536;2024-01-15T07:32:08;14.63;;;1.95;;
61015;SDS011;46902;52.920;6.536;2024-01-15T07:34:34;11.65;;;2.13;;
61015;SDS011;46902;52.920;6.536;2024-01-15T07:36:59;12.30;;;2.03;;
61015;SDS011;46902;52.920;6.536;2024-01-15T07:39:25;16.42;;;3.00;;
61015;SDS011;46902;52.920;6.536;2024-01-15T07:41:51;10.82;;;1.70;;
61015;SDS011;46902;52.920;6.536;2024-01-15T07:44:17;10.20;;;1.50;;
61015;SDS011;46902;52.920;6.536;2024-01-15T07:46:46;12.38;;;1.83;;
61015;SDS011;46902;52.920;6.536;2024-01-15T07:49:12;14.43;;;1.75;;
61015;SDS011;46902;52.920;6.536;2024-01-15T07:51:38;11.02;;;1.88;;
61015;SDS011;46902;52.920;6.536;2024-01-15T07:54:05;15.18;;;2.15;;
61015;SDS011;46902;52.920;6.536;2024-01-15T07:56:31;18.30;;;2.33;;
61015;SDS011;46902;52.920;6.536;2024-01-15T07:58:57;13.07;;;1.92;;
61015;SDS011;46902;52.920;6.536;2024-01-15T08:01:23;17.38;;;2.95;;
61015;SDS011;46902;52.920;6.536;2024-01-15T08:03:48;12.73;;;1.80;;
61015;SDS011;46902;52.920;6.536;2024-01-15T08:06:14;13.90;;;2.33;;
61015;SDS011;46902;52.920;6.536;2024-01-15T08:08:40;18.92;;;2.67;;
61015;SDS011;46902;52.920;6.536;2024-01-15T08:11:06;14.45;;;1.90;;
61015;SDS011;46902;52.920;6.536;2024-01-15T08:13:31;10.88;;;2.80;;
61015;SDS011;46902;52.920;6.536;2024-01-15T08:15:57;12.27;;;1.92;;
61015;SDS011;46902;52.920;6.536;2024-01-15T08:18:23;14.00;;;2.10;;
61015;SDS011;46902;52.920;6.536;2024-01-15T08:20:48;16.20;;;2.15;;
61015;SDS011;46902;52.920;6.536;2024-01-15T08:23:16;16.58;;;2.10;;
61015;SDS011;46902;52.920;6.536;2024-01-15T08:25:42;14.48;;;1.85;;
61015;SDS011;46902;52.920;6.536;2024-01-15T08:28:07;16.85;;;2.63;;
61015;SDS011;46902;52.920;6.536;2024-01-15T08:30:33;19.83;;;3.65;;
61015;SDS011;46902;52.920;6.536;2024-01-15T08:32:59;14.05;;;2.10;;
61015;SDS011;46902;52.920;6.536;2024-01-15T08:35:25;18.25;;;2.85;;
61015;SDS011;46902;52.920;6.536;2024-01-15T08:37:50;15.75;;;2.58;;
61015;SDS011;46902;52.920;6.536;2024-01-15T08:40:19;11.55;;;2.25;;
61015;SDS011;46902;52.920;6.536;2024-01-15T08:42:45;14.90;;;1.85;;
61015;SDS011;46902;52.920;6.536;2024-01-15T08:45:11;15.35;;;1.98;;
61015;SDS011;46902;52.920;6.536;2024-01-15T08:47:37;18.13;;;2.15;;
61015;SDS011;46902;52.920;6.536;2024-01-15T08:50:03;11.23;;;2.35;;
61015;SDS011;46902;52.920;6.536;2024-01-15T08:52:29;14.02;;;2.17;;
61015;SDS011;46902;52.920;6.536;2024-01-15T08:54:56;11.73;;;2.83;;
61015;SDS011;46902;52.920;6.536;2024-01-15T08:57:21;12.35;;;2.13;;
61015;SDS011;46902;52.920;6.536;2024-01-15T08:59:47;14.10;;;2.00;;
61015;SDS011;46902;52.920;6.536;2024-01-15T09:02:13;11.18;;;1.90;;
61015;SDS011;46902;52.920;6.536;2024-01-15T09:04:38;13.00;;;1.88;;
61015;SDS011;46902;52.920;6.536;2024-01-15T09:07:04;13.68;;;2.75;;
61015;SDS011;46902;52.920;6.536;2024-01-15T09:09:30;14.13;;;2.08;;
61015;SDS011;46902;52.920;6.536;2024-01-15T09:11:55;11.52;;;2.30;;
61015;SDS011;46902;52.920;6.536;2024-01-15T09:14:21;15.25;;;1.92;;
61015;SDS011;46902;52.920;6.536;2024-01-15T09:16:49;13.50;;;2.58;;
61015;SDS011;46902;52.920;6.536;2024-01-15T09:19:14;16.17;;;2.28;;
61015;SDS011;46902;52.920;6.536;2024-01-15T09:21:40;15.27;;;2.47;;
61015;SDS011;46902;52.920;6.536;2024-01-15T09:24:06;12.23;;;2.35;;
61015;SDS011;46902;52.920;6.536;2024-01-15T09:26:31;12.75;;;2.50;;
61015;SDS011;46902;52.920;6.536;2024-01-15T09:28:57;15.73;;;2.17;;
61015;SDS011;46902;52.920;6.536;2024-01-15T09:31:22;16.77;;;3.00;;
61015;SDS011;46902;52.920;6.536;2024-01-15T09:33:49;14.25;;;2.30;;
61015;SDS011;46902;52.920;6.536;2024-01-15T09:36:16;16.02;;;2.22;;
61015;SDS011;46902;52.920;6.536;2024-01-15T09:38:42;10.20;;;1.98;;
61015;SDS011;46902;52.920;6.536;2024-01-15T09:41:08;21.55;;;2.85;;
61015;SDS011;46902;52.920;6.536;2024-01-15T09:43:33;14.88;;;2.45;;
61015;SDS011;46902;52.920;6.536;2024-01-15T09:45:59;16.05;;;3.17;;
61015;SDS011;46902;52.920;6.536;2024-01-15T09:48:26;14.70;;;2.30;;
61015;SDS011;46902;52.920;6.536;2024-01-15T09:50:52;15.85;;;1.95;;
61015;SDS011;46902;52.920;6.536;2024-01-15T09:53:18;17.95;;;2.28;;
61015;SDS011;46902;52.920;6.536;2024-01-15T09:55:46;11.95;;;2.38;;
61015;SDS011;46902;52.920;6.536;2024-01-15T09:58:12;20.65;;;2.38;;
61015;SDS011;46902;52.920;6.536;2024-01-15T10:00:38;13.00;;;2.45;;
61015;SDS011;46902;52.920;6.536;2024-01-15T10:03:06;18.23;;;2.10;;
61015;SDS011;46902;52.920;6.536;2024-01-15T10:05:33;16.95;;;2.00;;
61015;SDS011;46902;52.920;6.536;2024-01-15T10:07:59;11.85;;;1.92;;
61015;SDS011;46902;52.920;6.536;2024-01-15T10:10:25;13.48;;;2.25;;
61015;SDS011;46902;52.920;6.536;2024-01-15T10:12:51;13.20;;;2.30;;
61015;SDS011;46902;52.920;6.536;2024-01-15T10:15:17;11.57;;;2.30;;
61015;SDS011;46902;52.920;6.536;2024-01-15T10:17:42;12.77;;;1.73;;
61015;SDS011;46902;52.920;6.536;2024-01-15T10:20:09;12.13;;;1.73;;
61015;SDS011;46902;52.920;6.536;2024-01-15T10:22:38;9.98;;;2.05;;
61015;SDS011;46902;52.920;6.536;2024-01-15T10:25:05;12.63;;;1.75;;
61015;SDS011;46902;52.920;6.536;2024-01-15T10:27:31;12.63;;;2.30;;
61015;SDS011;46902;52.920;6.536;2024-01-15T10:30:00;8.65;;;1.40;;
61015;SDS011;46902;52.920;6.536;2024-01-15T10:32:27;8.40;;;1.38;;
61015;SDS011;46902;52.920;6.536;2024-01-15T10:34:52;10.32;;;1.55;;
61015;SDS011;46902;52.920;6.536;2024-01-15T10:37:19;10.23;;;1.30;;
61015;SDS011;46902;52.920;6.536;2024-01-15T10:39:46;8.15;;;1.25;;
61015;SDS011;46902;52.920;6.536;2024-01-15T10:42:12;8.05;;;1.10;;
61015;SDS011;46902;52.920;6.536;2024-01-15T10:44:37;12.38;;;1.60;;
61015;SDS011;46902;52.920;6.536;2024-01-15T10:47:03;6.78;;;1.17;;
61015;SDS011;46902;52.920;6.536;2024-01-15T10:49:29;15.00;;;1.70;;
61015;SDS011;46902;52.920;6.536;2024-01-15T10:51:56;10.07;;;1.73;;
61015;SDS011;46902;52.920;6.536;2024-01-15T10:54:22;10.60;;;1.73;;
61015;SDS011;46902;52.920;6.536;2024-01-15T10:56:49;5.53;;;1.40;;
61015;SDS011;46902;52.920;6.536;2024-01-15T10:59:16;12.23;;;1.27;;
61015;SDS011;46902;52.920;6.536;2024-01-15T11:01:43;5.85;;;1.23;;
61015;SDS011;46902;52.920;6.536;2024-01-15T11:04:10;8.80;;;0.95;;
61015;SDS011;46902;52.920;6.536;2024-01-15T11:06:43;6.88;;;1.02;;
61015;SDS011;46902;52.920;6.536;2024-01-15T11:09:10;5.50;;;0.90;;
61015;SDS011;46902;52.920;6.536;2024-01-15T11:11:41;6.05;;;1.02;;
61015;SDS011;46902;52.920;6.536;2024-01-15T11:14:08;4.30;;;0.50;;
61015;SDS011;46902;52.920;6.536;2024-01-15T11:19:35;6.93;;;0.95;;
61015;SDS011;46902;52.920;6.536;2024-01-15T11:22:11;8.32;;;0.77;;
61015;SDS011;46902;52.920;6.536;2024-01-15T11:24:56;9.43;;;1.58;;
61015;SDS011;46902;52.920;6.536;2024-01-15T11:27:45;5.75;;;0.88;;
61015;SDS011;46902;52.920;6.536;2024-01-15T11:30:12;5.30;;;0.77;;
61015;SDS011;46902;52.920;6.536;2024-01-15T11:32:39;8.60;;;1.60;;
61015;SDS011;46902;52.920;6.536;2024-01-15T11:35:08;8.35;;;1.50;;
61015;SDS011;46902;52.920;6.536;2024-01-15T11:40:35;5.55;;;1.10;;
61015;SDS011;46902;52.920;6.536;2024-01-15T11:43:03;9.43;;;1.00;;
61015;SDS011;46902;52.920;6.536;2024-01-15T11:45:30;9.93;;;1.10;;
61015;SDS011;46902;52.920;6.536;2024-01-15T11:48:14;10.13;;;1.38;;
61015;SDS011;46902;52.920;6.536;2024-01-15T11:50:44;9.03;;;1.97;;
61015;SDS011;46902;52.920;6.536;2024-01-15T11:53:16;6.90;;;1.30;;
61015;SDS011;46902;52.920;6.536;2024-01-15T11:55:44;5.00;;;1.00;;
61015;SDS011;46902;52.920;6.536;2024-01-15T11:58:10;9.13;;;1.13;;
61015;SDS011;46902;52.920;6.536;2024-01-15T12:00:40;8.30;;;1.20;;
61015;SDS011;46902;52.920;6.536;2024-01-15T12:03:10;7.30;;;0.95;;
61015;SDS011;46902;52.920;6.536;2024-01-15T12:05:39;6.93;;;1.20;;
61015;SDS011;46902;52.920;6.536;2024-01-15T12:08:06;1.92;;;0.40;;
61015;SDS011;46902;52.920;6.536;2024-01-15T12:10:35;3.63;;;0.40;;
61015;SDS011;46902;52.920;6.536;2024-01-15T12:15:28;3.95;;;0.50;;
61015;SDS011;46902;52.920;6.536;2024-01-15T12:17:55;5.78;;;0.60;;
61015;SDS011;46902;52.920;6.536;2024-01-15T12:20:23;5.63;;;0.60;;
61015;SDS011;46902;52.920;6.536;2024-01-15T12:22:49;5.15;;;0.80;;
61015;SDS011;46902;52.920;6.536;2024-01-15T12:25:15;5.20;;;0.70;;
61015;SDS011;46902;52.920;6.536;2024-01-15T12:27:40;4.82;;;0.73;;
61015;SDS011;46902;52.920;6.536;2024-01-15T12:30:06;3.45;;;0.70;;
61015;SDS011;46902;52.920;6.536;2024-01-15T12:32:35;5.32;;;0.85;;
61015;SDS011;46902;52.920;6.536;2024-01-15T12:35:01;5.60;;;1.15;;
61015;SDS011;46902;52.920;6.536;2024-01-15T12:37:26;4.57;;;0.80;;
61015;SDS011;46902;52.920;6.536;2024-01-15T12:39:52;9.68;;;1.52;;
61015;SDS011;46902;52.920;6.536;2024-01-15T12:42:20;9.40;;;0.98;;
61015;SDS011;46902;52.920;6.536;2024-01-15T12:44:46;5.80;;;0.95;;
61015;SDS011;46902;52.920;6.536;2024-01-15T12:47:12;8.75;;;1.17;;
61015;SDS011;46902;52.920;6.536;2024-01-15T12:49:39;8.07;;;1.17;;
61015;SDS011;46902;52.920;6.536;2024-01-15T12:52:07;13.07;;;1.30;;
61015;SDS011;46902;52.920;6.536;2024-01-15T12:54:34;4.55;;;0.85;;
61015;SDS011;46902;52.920;6.536;2024-01-15T12:56:59;4.72;;;1.10;;
61015;SDS011;46902;52.920;6.536;2024-01-15T12:59:25;9.35;;;1.52;;
61015;SDS011;46902;52.920;6.536;2024-01-15T13:01:51;9.15;;;1.48;;
61015;SDS011;46902;52.920;6.536;2024-01-15T13:04:22;7.60;;;1.27;;
61015;SDS011;46902;52.920;6.536;2024-01-15T13:06:49;5.60;;;1.17;;
61015;SDS011;46902;52.920;6.536;2024-01-15T13:09:16;9.38;;;1.65;;
61015;SDS011;46902;52.920;6.536;2024-01-15T13:11:43;10.00;;;1.20;;
61015;SDS011;46902;52.920;6.536;2024-01-15T13:14:09;13.32;;;1.35;;
61015;SDS011;46902;52.920;6.536;2024-01-15T13:16:35;10.13;;;1.25;;
61015;SDS011;46902;52.920;6.536;2024-01-15T13:19:01;9.98;;;1.42;;
61015;SDS011;46902;52.920;6.536;2024-01-15T13:21:28;9.73;;;1.42;;
61015;SDS011;46902;52.920;6.536;2024-01-15T13:23:54;5.20;;;1.00;;
61015;SDS011;46902;52.920;6.536;2024-01-15T13:26:20;9.80;;;1.00;;
61015;SDS011;46902;52.920;6.536;2024-01-15T13:28:46;12.25;;;1.40;;
61015;SDS011;46902;52.920;6.536;2024-01-15T13:31:11;6.70;;;1.30;;
61015;SDS011;46902;52.920;6.536;2024-01-15T13:33:38;7.63;;;1.08;;
61015;SDS011;46902;52.920;6.536;2024-01-15T13:36:03;10.27;;;1.30;;
61015;SDS011;46902;52.920;6.536;2024-01-15T13:38:33;7.53;;;0.98;;
61015;SDS011;46902;52.920;6.536;2024-01-15T13:41:01;7.28;;;1.45;;
61015;SDS011;46902;52.920;6.536;2024-01-15T13:43:27;10.18;;;1.73;;
61015;SDS011;46902;52.920;6.536;2024-01-15T13:45:53;10.48;;;2.15;;
61015;SDS011;46902;52.920;6.536;2024-01-15T13:48:19;5.82;;;1.17;;
61015;SDS011;46902;52.920;6.536;2024-01-15T13:50:45;13.65;;;1.75;;
61015;SDS011;46902;52.920;6.536;2024-01-15T13:53:11;7.35;;;1.20;;
61015;SDS011;46902;52.920;6.536;2024-01-15T13:55:36;8.23;;;1.13;;
61015;SDS011;46902;52.920;6.536;2024-01-15T13:58:02;12.82;;;2.47;;
61015;SDS011;46902;52.920;6.536;2024-01-15T14:00:30;7.80;;;1.27;;
61015;SDS011;46902;52.920;6.536;2024-01-15T14:02:57;6.25;;;1.10;;
61015;SDS011;46902;52.920;6.536;2024-01-15T14:05:22;9.85;;;1.10;;
61015;SDS011;46902;52.920;6.536;2024-01-15T14:07:48;9.35;;;1.40;;
61015;SDS011;46902;52.920;6.536;2024-01-15T14:10:14;9.48;;;1.40;;
61015;SDS011;46902;52.920;6.536;2024-01-15T14:12:40;10.00;;;1.20;;
61015;SDS011;46902;52.920;6.536;2024-01-15T14:15:06;6.65;;;1.25;;
61015;SDS011;46902;52.920;6.536;2024-01-15T14:17:32;11.80;;;1.30;;
61015;SDS011;46902;52.920;6.536;2024-01-15T14:19:57;8.45;;;1.23;;
61015;SDS011;46902;52.920;6.536;2024-01-15T14:22:23;10.20;;;1.95;;
61015;SDS011;46902;52.920;6.536;2024-01-15T14:24:49;8.73;;;1.58;;
61015;SDS011;46902;52.920;6.536;2024-01-15T14:27:15;11.25;;;1.48;;
61015;SDS011;46902;52.920;6.536;2024-01-15T14:29:41;11.77;;;1.75;;
61015;SDS011;46902;52.920;6.536;2024-01-15T14:32:07;14.07;;;2.05;;
61015;SDS011;46902;52.920;6.536;2024-01-15T14:34:33;13.13;;;1.63;;
61015;SDS011;46902;52.920;6.536;2024-01-15T14:37:01;11.45;;;1.65;;
61015;SDS011;46902;52.920;6.536;2024-01-15T14:39:26;13.65;;;2.00;;
61015;SDS011;46902;52.920;6.536;2024-01-15T14:41:52;13.40;;;2.15;;
61015;SDS011;46902;52.920;6.536;2024-01-15T14:44:18;11.73;;;2.25;;